sensor_id;sensor_type;location;lat;lon;timestamp;P1;durP1;ratioP1;P2;durP2;ratioP2
63046;SDS011;62025;39.238;9.126;2023-05-10T00:01:13;2.83;;;2.50;;
63046;SDS011;62025;39.238;9.126;2023-05-10T00:03:39;5.00;;;2.83;;
63046;SDS011;62025;39.238;9.126;2023-05-10T00:06:05;3.85;;;2.60;;
63046;SDS011;62025;39.238;9.126;2023-05-10T00:08:31;6.55;;;3.20;;
63046;SDS011;62025;39.238;9.126;2023-05-10T00:10:57;5.57;;;2.90;;
63046;SDS011;62025;39.238;9.126;2023-05-10T00:13:23;3.33;;;2.63;;
63046;SDS011;62025;39.238;9.126;2023-05-10T00:15:49;5.53;;;2.80;;
63046;SDS011;62025;39.238;9.126;2023-05-10T00:18:15;8.77;;;3.40;;
63046;SDS011;62025;39.238;9.126;2023-05-10T00:20:41;5.90;;;2.45;;
63046;SDS011;62025;39.238;9.126;2023-05-10T00:23:07;5.70;;;2.70;;
63046;SDS011;62025;39.238;9.126;2023-05-10T00:25:33;5.97;;;2.88;;
63046;SDS011;62025;39.238;9.126;2023-05-10T00:27:59;5.35;;;2.80;;
63046;SDS011;62025;39.238;9.126;2023-05-10T00:30:27;4.63;;;3.08;;
63046;SDS011;62025;39.238;9.126;2023-05-10T00:32:53;4.60;;;2.50;;
63046;SDS011;62025;39.238;9.126;2023-05-10T00:35:20;5.28;;;2.67;;
63046;SDS011;62025;39.238;9.126;2023-05-10T00:37:46;5.70;;;2.67;;
63046;SDS011;62025;39.238;9.126;2023-05-10T00:40:13;4.63;;;2.50;;
63046;SDS011;62025;39.238;9.126;2023-05-10T00:42:42;4.72;;;2.92;;
63046;SDS011;62025;39.238;9.126;2023-05-10T00:45:08;6.18;;;2.97;;
63046;SDS011;62025;39.238;9.126;2023-05-10T00:47:34;5.22;;;2.63;;
63046;SDS011;62025;39.238;9.126;2023-05-10T00:50:01;7.82;;;2.33;;
63046;SDS011;62025;39.238;9.126;2023-05-10T00:52:28;3.92;;;2.72;;
63046;SDS011;62025;39.238;9.126;2023-05-10T00:54:54;5.93;;;2.67;;
63046;SDS011;62025;39.238;9.126;2023-05-10T00:57:21;4.85;;;2.38;;
63046;SDS011;62025;39.238;9.126;2023-05-10T00:59:48;4.85;;;3.03;;
63046;SDS011;62025;39.238;9.126;2023-05-10T01:02:15;4.82;;;2.30;;
63046;SDS011;62025;39.238;9.126;2023-05-10T01:04:41;4.85;;;2.33;;
63046;SDS011;62025;39.238;9.126;2023-05-10T01:07:08;3.25;;;2.35;;
63046;SDS011;62025;39.238;9.126;2023-05-10T01:09:36;5.18;;;2.35;;
63046;SDS011;62025;39.238;9.126;2023-05-10T01:12:02;4.97;;;2.40;;
63046;SDS011;62025;39.238;9.126;2023-05-10T01:14:31;4.30;;;2.47;;
63046;SDS011;62025;39.238;9.126;2023-05-10T01:16:59;5.72;;;2.60;;
63046;SDS011;62025;39.238;9.126;2023-05-10T01:19:26;5.32;;;2.40;;
63046;SDS011;62025;39.238;9.126;2023-05-10T01:35:55;7.00;;;2.90;;
63046;SDS011;62025;39.238;9.126;2023-05-10T01:42:13;6.85;;;2.40;;
63046;SDS011;62025;39.238;9.126;2023-05-10T01:45:00;7.35;;;2.45;;
63046;SDS011;62025;39.238;9.126;2023-05-10T01:47:53;5.03;;;2.50;;
63046;SDS011;62025;39.238;9.126;2023-05-10T01:50:31;6.07;;;3.05;;
63046;SDS011;62025;39.238;9.126;2023-05-10T01:55:32;7.18;;;2.25;;
63046;SDS011;62025;39.238;9.126;2023-05-10T01:58:19;8.65;;;2.50;;
63046;SDS011;62025;39.238;9.126;2023-05-10T02:00:49;4.75;;;2.55;;
63046;SDS011;62025;39.238;9.126;2023-05-10T02:03:18;6.25;;;2.47;;
63046;SDS011;62025;39.238;9.126;2023-05-10T02:05:48;7.18;;;2.67;;
63046;SDS011;62025;39.238;9.126;2023-05-10T02:08:15;8.10;;;3.08;;
63046;SDS011;62025;39.238;9.126;2023-05-10T02:10:44;5.63;;;2.47;;
63046;SDS011;62025;39.238;9.126;2023-05-10T02:13:12;8.48;;;2.53;;
63046;SDS011;62025;39.238;9.126;2023-05-10T02:15:40;6.60;;;3.03;;
63046;SDS011;62025;39.238;9.126;2023-05-10T02:18:08;5.93;;;2.38;;
63046;SDS011;62025;39.238;9.126;2023-05-10T02:20:36;6.38;;;2.55;;
63046;SDS011;62025;39.238;9.126;2023-05-10T02:23:03;10.15;;;2.90;;
63046;SDS011;62025;39.238;9.126;2023-05-10T02:25:30;3.58;;;2.22;;
63046;SDS011;62025;39.238;9.126;2023-05-10T02:27:58;5.57;;;2.42;;
63046;SDS011;62025;39.238;9.126;2023-05-10T02:30:27;7.80;;;2.55;;
63046;SDS011;62025;39.238;9.126;2023-05-10T02:32:56;4.55;;;2.60;;
63046;SDS011;62025;39.238;9.126;2023-05-10T02:35:24;8.00;;;2.65;;
63046;SDS011;62025;39.238;9.126;2023-05-10T02:37:52;8.02;;;3.30;;
63046;SDS011;62025;39.238;9.126;2023-05-10T02:40:19;5.63;;;2.42;;
63046;SDS011;62025;39.238;9.126;2023-05-10T02:42:48;5.75;;;2.40;;
63046;SDS011;62025;39.238;9.126;2023-05-10T02:45:19;9.25;;;2.50;;
63046;SDS011;62025;39.238;9.126;2023-05-10T02:47:50;6.32;;;2.42;;
63046;SDS011;62025;39.238;9.126;2023-05-10T02:50:16;5.88;;;2.30;;
63046;SDS011;62025;39.238;9.126;2023-05-10T02:52:43;6.10;;;2.45;;
63046;SDS011;62025;39.238;9.126;2023-05-10T02:55:14;6.30;;;2.30;;
63046;SDS011;62025;39.238;9.126;2023-05-10T02:57:45;7.13;;;3.05;;
63046;SDS011;62025;39.238;9.126;2023-05-10T03:00:17;5.38;;;2.30;;
63046;SDS011;62025;39.238;9.126;2023-05-10T03:02:43;5.85;;;2.35;;
63046;SDS011;62025;39.238;9.126;2023-05-10T03:05:09;5.32;;;2.33;;
63046;SDS011;62025;39.238;9.126;2023-05-10T03:07:36;5.43;;;2.67;;
63046;SDS011;62025;39.238;9.126;2023-05-10T03:10:02;4.00;;;2.40;;
63046;SDS011;62025;39.238;9.126;2023-05-10T03:12:36;3.83;;;2.15;;
63046;SDS011;62025;39.238;9.126;2023-05-10T03:18:33;5.00;;;2.70;;
63046;SDS011;62025;39.238;9.126;2023-05-10T03:21:10;5.07;;;2.40;;
63046;SDS011;62025;39.238;9.126;2023-05-10T03:26:23;5.40;;;2.70;;
63046;SDS011;62025;39.238;9.126;2023-05-10T03:29:00;6.20;;;2.33;;
63046;SDS011;62025;39.238;9.126;2023-05-10T03:31:27;4.32;;;2.40;;
63046;SDS011;62025;39.238;9.126;2023-05-10T03:33:53;4.80;;;2.22;;
63046;SDS011;62025;39.238;9.126;2023-05-10T03:36:23;3.17;;;2.17;;
63046;SDS011;62025;39.238;9.126;2023-05-10T03:38:50;3.97;;;2.10;;
63046;SDS011;62025;39.238;9.126;2023-05-10T03:41:16;5.63;;;2.60;;
63046;SDS011;62025;39.238;9.126;2023-05-10T03:43:42;4.38;;;2.63;;
63046;SDS011;62025;39.238;9.126;2023-05-10T03:46:08;5.45;;;2.58;;
63046;SDS011;62025;39.238;9.126;2023-05-10T03:48:34;8.15;;;2.75;;
63046;SDS011;62025;39.238;9.126;2023-05-10T03:51:00;4.63;;;2.72;;
63046;SDS011;62025;39.238;9.126;2023-05-10T03:53:27;3.97;;;2.33;;
63046;SDS011;62025;39.238;9.126;2023-05-10T03:55:53;6.18;;;2.67;;
63046;SDS011;62025;39.238;9.126;2023-05-10T03:58:19;3.20;;;2.13;;
63046;SDS011;62025;39.238;9.126;2023-05-10T04:00:45;5.07;;;2.38;;
63046;SDS011;62025;39.238;9.126;2023-05-10T04:03:12;3.95;;;2.10;;
63046;SDS011;62025;39.238;9.126;2023-05-10T04:05:38;3.97;;;1.88;;
63046;SDS011;62025;39.238;9.126;2023-05-10T04:08:05;3.28;;;2.05;;
63046;SDS011;62025;39.238;9.126;2023-05-10T04:10:31;4.43;;;2.10;;
63046;SDS011;62025;39.238;9.126;2023-05-10T04:12:57;3.00;;;2.15;;
63046;SDS011;62025;39.238;9.126;2023-05-10T04:15:23;5.82;;;2.15;;
63046;SDS011;62025;39.238;9.126;2023-05-10T04:17:49;3.25;;;1.90;;
63046;SDS011;62025;39.238;9.126;2023-05-10T04:20:16;2.67;;;2.00;;
63046;SDS011;62025;39.238;9.126;2023-05-10T04:22:42;4.47;;;2.00;;
63046;SDS011;62025;39.238;9.126;2023-05-10T04:25:08;4.53;;;2.15;;
63046;SDS011;62025;39.238;9.126;2023-05-10T04:27:34;5.82;;;2.10;;
63046;SDS011;62025;39.238;9.126;2023-05-10T04:30:01;3.20;;;2.00;;
63046;SDS011;62025;39.238;9.126;2023-05-10T04:32:27;4.85;;;2.40;;
63046;SDS011;62025;39.238;9.126;2023-05-10T04:34:53;4.90;;;2.90;;
63046;SDS011;62025;39.238;9.126;2023-05-10T04:37:19;5.38;;;2.70;;
63046;SDS011;62025;39.238;9.126;2023-05-10T04:39:46;7.22;;;3.47;;
63046;SDS011;62025;39.238;9.126;2023-05-10T04:42:12;5.28;;;2.90;;
63046;SDS011;62025;39.238;9.126;2023-05-10T04:44:40;5.05;;;2.28;;
63046;SDS011;62025;39.238;9.126;2023-05-10T04:47:06;5.07;;;2.15;;
63046;SDS011;62025;39.238;9.126;2023-05-10T04:49:32;3.95;;;2.53;;
63046;SDS011;62025;39.238;9.126;2023-05-10T04:51:58;2.55;;;1.92;;
63046;SDS011;62025;39.238;9.126;2023-05-10T04:54:24;4.22;;;2.10;;
63046;SDS011;62025;39.238;9.126;2023-05-10T04:56:50;4.00;;;2.10;;
63046;SDS011;62025;39.238;9.126;2023-05-10T04:59:16;4.40;;;2.28;;
63046;SDS011;62025;39.238;9.126;2023-05-10T05:01:42;8.15;;;2.33;;
63046;SDS011;62025;39.238;9.126;2023-05-10T05:04:08;7.22;;;2.50;;
63046;SDS011;62025;39.238;9.126;2023-05-10T05:06:34;3.40;;;2.00;;
63046;SDS011;62025;39.238;9.126;2023-05-10T05:09:00;3.78;;;2.00;;
63046;SDS011;62025;39.238;9.126;2023-05-10T05:11:26;9.05;;;3.28;;
63046;SDS011;62025;39.238;9.126;2023-05-10T05:13:52;3.53;;;2.30;;
63046;SDS011;62025;39.238;9.126;2023-05-10T05:16:18;4.43;;;2.20;;
63046;SDS011;62025;39.238;9.126;2023-05-10T05:18:44;4.40;;;2.20;;
63046;SDS011;62025;39.238;9.126;2023-05-10T05:21:14;3.80;;;2.10;;
63046;SDS011;62025;39.238;9.126;2023-05-10T05:23:44;4.22;;;2.10;;
63046;SDS011;62025;39.238;9.126;2023-05-10T05:26:10;3.63;;;2.15;;
63046;SDS011;62025;39.238;9.126;2023-05-10T05:28:37;4.57;;;1.90;;
63046;SDS011;62025;39.238;9.126;2023-05-10T05:31:06;4.72;;;2.05;;
63046;SDS011;62025;39.238;9.126;2023-05-10T05:33:33;5.13;;;2.50;;
63046;SDS011;62025;39.238;9.126;2023-05-10T05:36:03;4.00;;;2.17;;
63046;SDS011;62025;39.238;9.126;2023-05-10T05:38:30;6.60;;;2.50;;
63046;SDS011;62025;39.238;9.126;2023-05-10T05:40:56;5.63;;;2.60;;
63046;SDS011;62025;39.238;9.126;2023-05-10T05:43:23;5.20;;;2.25;;
63046;SDS011;62025;39.238;9.126;2023-05-10T05:45:49;5.35;;;2.38;;
63046;SDS011;62025;39.238;9.126;2023-05-10T05:48:15;6.13;;;2.50;;
63046;SDS011;62025;39.238;9.126;2023-05-10T05:50:41;5.95;;;2.50;;
63046;SDS011;62025;39.238;9.126;2023-05-10T05:53:06;6.07;;;2.20;;
63046;SDS011;62025;39.238;9.126;2023-05-10T05:55:34;4.18;;;2.00;;
63046;SDS011;62025;39.238;9.126;2023-05-10T05:58:00;5.95;;;2.17;;
63046;SDS011;62025;39.238;9.126;2023-05-10T06:00:26;3.88;;;1.77;;
63046;SDS011;62025;39.238;9.126;2023-05-10T06:02:52;4.85;;;2.10;;
63046;SDS011;62025;39.238;9.126;2023-05-10T06:05:18;5.07;;;1.98;;
63046;SDS011;62025;39.238;9.126;2023-05-10T06:07:45;6.65;;;2.20;;
63046;SDS011;62025;39.238;9.126;2023-05-10T06:10:11;5.43;;;2.35;;
63046;SDS011;62025;39.238;9.126;2023-05-10T06:12:37;4.30;;;2.17;;
63046;SDS011;62025;39.238;9.126;2023-05-10T06:15:03;6.40;;;2.38;;
63046;SDS011;62025;39.238;9.126;2023-05-10T06:17:30;4.57;;;1.98;;
63046;SDS011;62025;39.238;9.126;2023-05-10T06:19:56;3.85;;;2.00;;
63046;SDS011;62025;39.238;9.126;2023-05-10T06:22:22;5.25;;;2.10;;
63046;SDS011;62025;39.238;9.126;2023-05-10T06:24:48;7.03;;;2.15;;
63046;SDS011;62025;39.238;9.126;2023-05-10T06:27:15;5.63;;;1.90;;
63046;SDS011;62025;39.238;9.126;2023-05-10T06:29:41;6.20;;;1.95;;
63046;SDS011;62025;39.238;9.126;2023-05-10T06:32:07;6.50;;;2.25;;
63046;SDS011;62025;39.238;9.126;2023-05-10T06:34:33;5.53;;;2.00;;
63046;SDS011;62025;39.238;9.126;2023-05-10T06:36:59;3.92;;;2.03;;
63046;SDS011;62025;39.238;9.126;2023-05-10T06:39:25;6.13;;;2.38;;
63046;SDS011;62025;39.238;9.126;2023-05-10T06:41:51;5.05;;;1.80;;
63046;SDS011;62025;39.238;9.126;2023-05-10T06:44:18;4.75;;;1.80;;
63046;SDS011;62025;39.238;9.126;2023-05-10T06:46:44;3.60;;;1.60;;
63046;SDS011;62025;39.238;9.126;2023-05-10T06:49:10;3.75;;;1.50;;
63046;SDS011;62025;39.238;9.126;2023-05-10T06:51:36;4.57;;;1.55;;
63046;SDS011;62025;39.238;9.126;2023-05-10T06:54:02;3.60;;;1.20;;
63046;SDS011;62025;39.238;9.126;2023-05-10T06:56:28;5.57;;;1.50;;
63046;SDS011;62025;39.238;9.126;2023-05-10T06:58:54;6.78;;;1.40;;
63046;SDS011;62025;39.238;9.126;2023-05-10T07:12:30;3.50;;;1.50;;
63046;SDS011;62025;39.238;9.126;2023-05-10T07:14:56;4.13;;;1.35;;
63046;SDS011;62025;39.238;9.126;2023-05-10T07:17:22;2.67;;;1.33;;
63046;SDS011;62025;39.238;9.126;2023-05-10T07:19:48;3.53;;;1.10;;
63046;SDS011;62025;39.238;9.126;2023-05-10T07:22:15;3.67;;;1.20;;
63046;SDS011;62025;39.238;9.126;2023-05-10T07:24:44;3.33;;;1.10;;
63046;SDS011;62025;39.238;9.126;2023-05-10T07:27:10;5.53;;;1.42;;
63046;SDS011;62025;39.238;9.126;2023-05-10T07:29:37;5.63;;;1.10;;
63046;SDS011;62025;39.238;9.126;2023-05-10T07:32:04;5.07;;;1.23;;
63046;SDS011;62025;39.238;9.126;2023-05-10T07:34:30;2.63;;;1.23;;
63046;SDS011;62025;39.238;9.126;2023-05-10T07:37:00;5.05;;;1.27;;
63046;SDS011;62025;39.238;9.126;2023-05-10T07:39:26;6.00;;;1.33;;
63046;SDS011;62025;39.238;9.126;2023-05-10T07:41:53;4.45;;;1.10;;
63046;SDS011;62025;39.238;9.126;2023-05-10T07:44:22;3.17;;;0.90;;
63046;SDS011;62025;39.238;9.126;2023-05-10T07:46:48;2.55;;;1.00;;
63046;SDS011;62025;39.238;9.126;2023-05-10T07:49:14;3.30;;;1.15;;
63046;SDS011;62025;39.238;9.126;2023-05-10T07:51:40;3.22;;;1.15;;
63046;SDS011;62025;39.238;9.126;2023-05-10T07:54:07;5.47;;;1.00;;
63046;SDS011;62025;39.238;9.126;2023-05-10T07:56:33;1.92;;;0.98;;
63046;SDS011;62025;39.238;9.126;2023-05-10T07:59:00;2.45;;;1.10;;
63046;SDS011;62025;39.238;9.126;2023-05-10T08:01:32;3.08;;;1.00;;
63046;SDS011;62025;39.238;9.126;2023-05-10T08:03:59;2.55;;;1.10;;
63046;SDS011;62025;39.238;9.126;2023-05-10T08:06:26;5.35;;;1.02;;
63046;SDS011;62025;39.238;9.126;2023-05-10T08:08:55;3.50;;;1.52;;
63046;SDS011;62025;39.238;9.126;2023-05-10T08:11:21;2.05;;;0.85;;
63046;SDS011;62025;39.238;9.126;2023-05-10T08:13:48;2.22;;;0.90;;
63046;SDS011;62025;39.238;9.126;2023-05-10T08:16:16;2.55;;;0.88;;
63046;SDS011;62025;39.238;9.126;2023-05-10T08:18:43;3.13;;;0.90;;
63046;SDS011;62025;39.238;9.126;2023-05-10T08:23:36;2.15;;;0.88;;
63046;SDS011;62025;39.238;9.126;2023-05-10T08:26:03;3.05;;;1.40;;
63046;SDS011;62025;39.238;9.126;2023-05-10T08:28:29;2.88;;;0.85;;
63046;SDS011;62025;39.238;9.126;2023-05-10T08:30:55;2.17;;;1.13;;
63046;SDS011;62025;39.238;9.126;2023-05-10T08:33:21;4.45;;;0.88;;
63046;SDS011;62025;39.238;9.126;2023-05-10T08:35:47;5.38;;;1.00;;
63046;SDS011;62025;39.238;9.126;2023-05-10T08:38:13;2.83;;;1.02;;
63046;SDS011;62025;39.238;9.126;2023-05-10T08:40:43;3.53;;;1.02;;
63046;SDS011;62025;39.238;9.126;2023-05-10T08:43:11;3.25;;;1.20;;
63046;SDS011;62025;39.238;9.126;2023-05-10T08:45:41;3.15;;;0.90;;
63046;SDS011;62025;39.238;9.126;2023-05-10T08:48:13;4.55;;;1.10;;
63046;SDS011;62025;39.238;9.126;2023-05-10T08:50:41;8.00;;;1.20;;
63046;SDS011;62025;39.238;9.126;2023-05-10T08:53:11;7.13;;;1.40;;
63046;SDS011;62025;39.238;9.126;2023-05-10T08:55:39;6.97;;;1.42;;
63046;SDS011;62025;39.238;9.126;2023-05-10T09:00:34;3.95;;;1.15;;
63046;SDS011;62025;39.238;9.126;2023-05-10T09:03:02;7.95;;;1.23;;
63046;SDS011;62025;39.238;9.126;2023-05-10T09:05:30;5.78;;;1.00;;
63046;SDS011;62025;39.238;9.126;2023-05-10T09:07:56;6.55;;;1.00;;
63046;SDS011;62025;39.238;9.126;2023-05-10T09:10:22;6.55;;;1.58;;
63046;SDS011;62025;39.238;9.126;2023-05-10T09:12:52;5.22;;;1.10;;
63046;SDS011;62025;39.238;9.126;2023-05-10T09:15:21;4.45;;;1.27;;
63046;SDS011;62025;39.238;9.126;2023-05-10T09:17:48;4.43;;;1.02;;
63046;SDS011;62025;39.238;9.126;2023-05-10T09:20:15;4.50;;;1.30;;
63046;SDS011;62025;39.238;9.126;2023-05-10T09:22:42;6.32;;;1.13;;
63046;SDS011;62025;39.238;9.126;2023-05-10T09:25:10;7.75;;;1.38;;
63046;SDS011;62025;39.238;9.126;2023-05-10T09:27:41;5.13;;;1.13;;
63046;SDS011;62025;39.238;9.126;2023-05-10T09:30:15;5.13;;;1.35;;
63046;SDS011;62025;39.238;9.126;2023-05-10T09:32:44;4.45;;;1.17;;
63046;SDS011;62025;39.238;9.126;2023-05-10T09:35:13;3.58;;;1.08;;
63046;SDS011;62025;39.238;9.126;2023-05-10T09:37:42;3.15;;;1.10;;
63046;SDS011;62025;39.238;9.126;2023-05-10T09:40:12;2.63;;;0.82;;
63046;SDS011;62025;39.238;9.126;2023-05-10T09:42:43;9.90;;;1.30;;
63046;SDS011;62025;39.238;9.126;2023-05-10T09:45:24;6.32;;;1.27;;
63046;SDS011;62025;39.238;9.126;2023-05-10T09:47:52;9.30;;;1.42;;
63046;SDS011;62025;39.238;9.126;2023-05-10T09:50:20;7.50;;;1.60;;
63046;SDS011;62025;39.238;9.126;2023-05-10T09:52:47;2.50;;;1.23;;
63046;SDS011;62025;39.238;9.126;2023-05-10T09:55:14;6.70;;;1.20;;
63046;SDS011;62025;39.238;9.126;2023-05-10T09:57:41;8.43;;;1.50;;
63046;SDS011;62025;39.238;9.126;2023-05-10T10:00:07;6.25;;;1.45;;
63046;SDS011;62025;39.238;9.126;2023-05-10T10:02:41;4.15;;;1.40;;
63046;SDS011;62025;39.238;9.126;2023-05-10T10:05:07;4.40;;;1.30;;
63046;SDS011;62025;39.238;9.126;2023-05-10T10:07:34;4.50;;;1.67;;
63046;SDS011;62025;39.238;9.126;2023-05-10T10:10:00;5.07;;;1.67;;
63046;SDS011;62025;39.238;9.126;2023-05-10T10:12:27;6.22;;;1.75;;
63046;SDS011;62025;39.238;9.126;2023-05-10T10:14:53;7.68;;;1.48;;
63046;SDS011;62025;39.238;9.126;2023-05-10T10:17:20;8.70;;;2.38;;
63046;SDS011;62025;39.238;9.126;2023-05-10T10:19:47;7.25;;;1.85;;
63046;SDS011;62025;39.238;9.126;2023-05-10T10:22:14;5.22;;;1.73;;
63046;SDS011;62025;39.238;9.126;2023-05-10T10:24:40;4.18;;;1.42;;
63046;SDS011;62025;39.238;9.126;2023-05-10T10:30:10;6.47;;;1.80;;
63046;SDS011;62025;39.238;9.126;2023-05-10T10:35:52;7.43;;;1.80;;
63046;SDS011;62025;39.238;9.126;2023-05-10T10:38:20;6.05;;;1.55;;
63046;SDS011;62025;39.238;9.126;2023-05-10T10:40:47;7.00;;;1.85;;
63046;SDS011;62025;39.238;9.126;2023-05-10T10:43:22;9.43;;;1.90;;
63046;SDS011;62025;39.238;9.126;2023-05-10T10:49:09;6.97;;;1.90;;
63046;SDS011;62025;39.238;9.126;2023-05-10T10:51:38;7.65;;;1.90;;
63046;SDS011;62025;39.238;9.126;2023-05-10T10:54:08;7.03;;;1.70;;
63046;SDS011;62025;39.238;9.126;2023-05-10T10:56:35;9.18;;;1.70;;
63046;SDS011;62025;39.238;9.126;2023-05-10T10:59:01;7.68;;;1.58;;
63046;SDS011;62025;39.238;9.126;2023-05-10T11:01:32;9.65;;;1.90;;
63046;SDS011;62025;39.238;9.126;2023-05-10T11:08:57;8.20;;;1.70;;
63046;SDS011;62025;39.238;9.126;2023-05-10T11:11:24;8.13;;;1.40;;
63046;SDS011;62025;39.238;9.126;2023-05-10T11:13:50;7.40;;;1.70;;
63046;SDS011;62025;39.238;9.126;2023-05-10T11:18:52;6.38;;;1.60;;
63046;SDS011;62025;39.238;9.126;2023-05-10T11:21:18;7.88;;;2.30;;
63046;SDS011;62025;39.238;9.126;2023-05-10T11:26:22;9.43;;;2.08;;
63046;SDS011;62025;39.238;9.126;2023-05-10T11:28:57;7.35;;;1.40;;
63046;SDS011;62025;39.238;9.126;2023-05-10T11:31:27;6.85;;;1.70;;
63046;SDS011;62025;39.238;9.126;2023-05-10T11:33:54;7.65;;;1.48;;
63046;SDS011;62025;39.238;9.126;2023-05-10T11:36:55;6.72;;;1.40;;
63046;SDS011;62025;39.238;9.126;2023-05-10T11:39:20;5.50;;;1.52;;
63046;SDS011;62025;39.238;9.126;2023-05-10T11:41:48;8.13;;;1.50;;
63046;SDS011;62025;39.238;9.126;2023-05-10T11:44:14;6.50;;;2.10;;
63046;SDS011;62025;39.238;9.126;2023-05-10T11:46:40;4.22;;;1.35;;
63046;SDS011;62025;39.238;9.126;2023-05-10T11:49:06;5.38;;;1.42;;
63046;SDS011;62025;39.238;9.126;2023-05-10T11:51:33;7.20;;;1.52;;
63046;SDS011;62025;39.238;9.126;2023-05-10T11:54:01;5.32;;;1.40;;
63046;SDS011;62025;39.238;9.126;2023-05-10T11:56:33;5.93;;;1.40;;
63046;SDS011;62025;39.238;9.126;2023-05-10T11:58:59;7.35;;;1.50;;
63046;SDS011;62025;39.238;9.126;2023-05-10T12:01:27;7.30;;;1.70;;
63046;SDS011;62025;39.238;9.126;2023-05-10T12:03:55;7.45;;;1.73;;
63046;SDS011;62025;39.238;9.126;2023-05-10T12:06:29;9.98;;;1.83;;
63046;SDS011;62025;39.238;9.126;2023-05-10T12:09:05;5.50;;;2.28;;
63046;SDS011;62025;39.238;9.126;2023-05-10T12:11:33;5.88;;;1.40;;
63046;SDS011;62025;39.238;9.126;2023-05-10T12:14:04;11.30;;;2.00;;
63046;SDS011;62025;39.238;9.126;2023-05-10T12:16:30;7.35;;;2.03;;
63046;SDS011;62025;39.238;9.126;2023-05-10T12:18:57;6.85;;;1.70;;
63046;SDS011;62025;39.238;9.126;2023-05-10T12:23:53;10.38;;;1.60;;
63046;SDS011;62025;39.238;9.126;2023-05-10T12:26:22;6.03;;;1.63;;
63046;SDS011;62025;39.238;9.126;2023-05-10T12:28:52;10.93;;;2.10;;
63046;SDS011;62025;39.238;9.126;2023-05-10T12:31:19;9.77;;;1.80;;
63046;SDS011;62025;39.238;9.126;2023-05-10T12:33:45;9.95;;;1.90;;
63046;SDS011;62025;39.238;9.126;2023-05-10T12:36:13;6.78;;;1.70;;
63046;SDS011;62025;39.238;9.126;2023-05-10T12:38:41;9.82;;;2.00;;
63046;SDS011;62025;39.238;9.126;2023-05-10T12:41:10;13.52;;;1.95;;
63046;SDS011;62025;39.238;9.126;2023-05-10T12:43:39;9.13;;;1.80;;
63046;SDS011;62025;39.238;9.126;2023-05-10T12:46:09;11.45;;;1.77;;
63046;SDS011;62025;39.238;9.126;2023-05-10T12:48:43;7.15;;;2.30;;
63046;SDS011;62025;39.238;9.126;2023-05-10T12:51:19;7.13;;;1.85;;
63046;SDS011;62025;39.238;9.126;2023-05-10T12:53:47;11.45;;;1.85;;
63046;SDS011;62025;39.238;9.126;2023-05-10T12:56:13;12.32;;;2.00;;
63046;SDS011;62025;39.238;9.126;2023-05-10T12:58:39;10.98;;;2.30;;
63046;SDS011;62025;39.238;9.126;2023-05-10T13:01:05;11.68;;;2.20;;
63046;SDS011;62025;39.238;9.126;2023-05-10T13:03:31;12.75;;;2.33;;
63046;SDS011;62025;39.238;9.126;2023-05-10T13:05:57;10.65;;;2.13;;
63046;SDS011;62025;39.238;9.126;2023-05-10T13:08:23;9.32;;;2.20;;
63046;SDS011;62025;39.238;9.126;2023-05-10T13:10:50;6.68;;;1.55;;
63046;SDS011;62025;39.238;9.126;2023-05-10T13:13:16;11.15;;;2.13;;
63046;SDS011;62025;39.238;9.126;2023-05-10T13:15:42;7.63;;;1.85;;
63046;SDS011;62025;39.238;9.126;2023-05-10T13:18:08;14.57;;;2.25;;
63046;SDS011;62025;39.238;9.126;2023-05-10T13:20:34;12.00;;;1.80;;
63046;SDS011;62025;39.238;9.126;2023-05-10T13:23:00;5.75;;;1.63;;
63046;SDS011;62025;39.238;9.126;2023-05-10T13:25:27;7.13;;;1.60;;
63046;SDS011;62025;39.238;9.126;2023-05-10T13:27:53;8.50;;;1.77;;
63046;SDS011;62025;39.238;9.126;2023-05-10T13:30:19;11.00;;;2.20;;
63046;SDS011;62025;39.238;9.126;2023-05-10T13:32:45;11.50;;;2.30;;
63046;SDS011;62025;39.238;9.126;2023-05-10T13:35:11;13.68;;;1.92;;
63046;SDS011;62025;39.238;9.126;2023-05-10T13:37:37;9.77;;;1.77;;
63046;SDS011;62025;39.238;9.126;2023-05-10T13:40:03;11.00;;;2.15;;
63046;SDS011;62025;39.238;9.126;2023-05-10T13:42:31;6.53;;;3.03;;
63046;SDS011;62025;39.238;9.126;2023-05-10T13:44:58;10.55;;;2.20;;
63046;SDS011;62025;39.238;9.126;2023-05-10T13:47:27;10.15;;;2.05;;
63046;SDS011;62025;39.238;9.126;2023-05-10T13:49:53;11.43;;;2.50;;
63046;SDS011;62025;39.238;9.126;2023-05-10T13:52:19;8.75;;;2.10;;
63046;SDS011;62025;39.238;9.126;2023-05-10T13:54:45;10.65;;;2.10;;
63046;SDS011;62025;39.238;9.126;2023-05-10T13:57:11;12.60;;;2.10;;
63046;SDS011;62025;39.238;9.126;2023-05-10T13:59:39;12.87;;;2.10;;
63046;SDS011;62025;39.238;9.126;2023-05-10T14:02:05;7.72;;;2.05;;
63046;SDS011;62025;39.238;9.126;2023-05-10T14:04:31;10.55;;;2.00;;
63046;SDS011;62025;39.238;9.126;2023-05-10T14:06:57;15.52;;;2.30;;
63046;SDS011;62025;39.238;9.126;2023-05-10T14:09:23;10.27;;;1.90;;
63046;SDS011;62025;39.238;9.126;2023-05-10T14:11:49;7.70;;;1.67;;
63046;SDS011;62025;39.238;9.126;2023-05-10T14:14:15;11.63;;;1.90;;
63046;SDS011;62025;39.238;9.126;2023-05-10T14:16:42;11.88;;;2.08;;
63046;SDS011;62025;39.238;9.126;2023-05-10T14:19:09;7.75;;;1.80;;
63046;SDS011;62025;39.238;9.126;2023-05-10T14:21:36;11.35;;;2.70;;
63046;SDS011;62025;39.238;9.126;2023-05-10T14:24:02;9.60;;;2.10;;
63046;SDS011;62025;39.238;9.126;2023-05-10T14:26:29;5.45;;;1.80;;
63046;SDS011;62025;39.238;9.126;2023-05-10T14:28:55;7.65;;;1.80;;
63046;SDS011;62025;39.238;9.126;2023-05-10T14:31:21;7.70;;;1.88;;
63046;SDS011;62025;39.238;9.126;2023-05-10T14:33:49;12.43;;;1.80;;
63046;SDS011;62025;39.238;9.126;2023-05-10T14:36:15;6.82;;;2.10;;
63046;SDS011;62025;39.238;9.126;2023-05-10T14:38:42;13.73;;;1.75;;
63046;SDS011;62025;39.238;9.126;2023-05-10T14:41:08;10.20;;;1.73;;
63046;SDS011;62025;39.238;9.126;2023-05-10T14:43:39;8.18;;;2.42;;
63046;SDS011;62025;39.238;9.126;2023-05-10T14:46:06;8.90;;;1.77;;
63046;SDS011;62025;39.238;9.126;2023-05-10T14:48:32;9.68;;;2.05;;
63046;SDS011;62025;39.238;9.126;2023-05-10T14:50:58;11.10;;;1.60;;
63046;SDS011;62025;39.238;9.126;2023-05-10T14:53:24;8.75;;;1.95;;
63046;SDS011;62025;39.238;9.126;2023-05-10T14:55:50;9.38;;;1.92;;
63046;SDS011;62025;39.238;9.126;2023-05-10T14:58:16;7.55;;;1.90;;
63046;SDS011;62025;39.238;9.126;2023-05-10T15:00:42;9.15;;;1.85;;
63046;SDS011;62025;39.238;9.126;2023-05-10T15:03:08;11.35;;;1.80;;
63046;SDS011;62025;39.238;9.126;2023-05-10T15:05:34;12.00;;;1.90;;
63046;SDS011;62025;39.238;9.126;2023-05-10T15:08:02;9.57;;;1.70;;
63046;SDS011;62025;39.238;9.126;2023-05-10T15:10:30;10.20;;;1.80;;
63046;SDS011;62025;39.238;9.126;2023-05-10T15:12:56;8.02;;;1.70;;
63046;SDS011;62025;39.238;9.126;2023-05-10T15:15:22;7.70;;;1.42;;
63046;SDS011;62025;39.238;9.126;2023-05-10T15:17:48;9.77;;;2.00;;
63046;SDS011;62025;39.238;9.126;2023-05-10T15:20:14;11.60;;;2.25;;
63046;SDS011;62025;39.238;9.126;2023-05-10T15:22:40;6.60;;;1.60;;
63046;SDS011;62025;39.238;9.126;2023-05-10T15:25:06;6.68;;;1.50;;
63046;SDS011;62025;39.238;9.126;2023-05-10T15:27:33;6.85;;;1.70;;
63046;SDS011;62025;39.238;9.126;2023-05-10T15:29:59;10.30;;;2.17;;
63046;SDS011;62025;39.238;9.126;2023-05-10T15:32:26;11.35;;;2.80;;
63046;SDS011;62025;39.238;9.126;2023-05-10T15:34:54;7.85;;;1.70;;
63046;SDS011;62025;39.238;9.126;2023-05-10T15:37:20;8.60;;;1.80;;
63046;SDS011;62025;39.238;9.126;2023-05-10T15:39:48;11.40;;;1.80;;
63046;SDS011;62025;39.238;9.126;2023-05-10T15:42:14;10.20;;;2.10;;
63046;SDS011;62025;39.238;9.126;2023-05-10T15:44:41;7.65;;;1.90;;
63046;SDS011;62025;39.238;9.126;2023-05-10T15:47:09;9.73;;;1.90;;
63046;SDS011;62025;39.238;9.126;2023-05-10T15:49:35;9.05;;;2.30;;
63046;SDS011;62025;39.238;9.126;2023-05-10T15:52:01;13.20;;;2.13;;